Time;durP1;ratioP1;P1;durP2;ratioP2;P2;SDS_P1;SDS_P2;PMS_P1;PMS_P2;Temp;Humidity;BMP_temperature;BMP_pressure;BME280_temperature;BME280_humidity;BME280_pressure;Samples;Min_cycle;Max_cycle;Signal;HPM_P1;HPM_P2
2023/01/14 00:00:12;;;;;;;99.35;68.70;;;10.60;99.90;;;;;;5051871;28;20036;-69
2023/01/14 00:03:16;;;;;;;100.28;66.47;;;10.60;99.90;;;;;;5051027;28;20052;-69
2023/01/14 00:06:23;;;;;;;88.63;61.00;;;10.30;99.90;;;;;;5051700;28;20639;-69
2023/01/14 00:09:29;;;;;;;91.55;60.80;;;10.50;99.90;;;;;;5051363;28;20055;-67
2023/01/14 00:12:33;;;;;;;95.00;63.55;;;10.60;99.90;;;;;;5051590;28;20044;-67
2023/01/14 00:15:37;;;;;;;99.78;66.20;;;10.60;99.90;;;;;;5051680;28;20397;-69
2023/01/14 00:18:41;;;;;;;105.45;67.53;;;10.50;99.90;;;;;;5051084;28;20396;-69
2023/01/14 00:21:46;;;;;;;103.28;67.45;;;10.40;99.90;;;;;;5051494;28;20641;-68
2023/01/14 00:24:50;;;;;;;98.43;66.75;;;;;;;;;;5051209;28;20060;-69
2023/01/14 00:27:57;;;;;;;103.57;68.45;;;;;;;;;;5051225;28;20040;-69
2023/01/14 00:31:08;;;;;;;104.28;71.15;;;10.60;99.90;;;;;;5051517;28;20408;-69
2023/01/14 00:34:13;;;;;;;103.85;66.35;;;10.50;99.90;;;;;;5038874;28;20044;-69
2023/01/14 00:37:17;;;;;;;95.72;65.50;;;;;;;;;;5050501;28;20048;-69
2023/01/14 00:40:21;;;;;;;100.78;67.20;;;10.00;99.90;;;;;;5049950;28;20056;-69
2023/01/14 00:43:28;;;;;;;97.65;67.03;;;;;;;;;;5050004;28;20059;-69
2023/01/14 00:46:34;;;;;;;99.75;64.57;;;13.50;99.90;;;;;;5049871;28;20047;-69
2023/01/14 00:49:39;;;;;;;96.47;65.55;;;;;;;;;;5049916;28;20503;-69
2023/01/14 00:52:43;;;;;;;95.00;63.83;;;10.20;99.90;;;;;;5050917;28;20044;-69
2023/01/14 00:55:47;;;;;;;100.75;66.07;;;;;;;;;;5050787;28;20040;-69
2023/01/14 00:58:51;;;;;;;98.78;66.95;;;10.80;99.90;;;;;;5049638;28;20103;-69
2023/01/14 01:01:56;;;;;;;91.80;64.50;;;13.70;99.90;;;;;;5049624;28;20044;-69
2023/01/14 01:05:00;;;;;;;90.07;62.28;;;12.40;99.90;;;;;;5050309;28;20389;-69
2023/01/14 01:08:05;;;;;;;99.10;65.18;;;10.50;99.90;;;;;;5051095;28;20879;-68
2023/01/14 01:11:09;;;;;;;91.88;62.53;;;11.60;99.90;;;;;;5050764;28;20076;-69
2023/01/14 01:14:13;;;;;;;91.03;63.08;;;10.50;99.90;;;;;;5049879;28;20052;-68
2023/01/14 01:17:18;;;;;;;89.53;62.15;;;10.60;99.90;;;;;;5050564;28;20416;-69
2023/01/14 01:20:22;;;;;;;89.85;62.00;;;;;;;;;;5050355;28;20036;-69
2023/01/14 01:23:26;;;;;;;98.43;62.85;;;;;;;;;;5049371;28;20519;-69
2023/01/14 01:26:30;;;;;;;87.32;58.80;;;;;;;;;;5050493;28;20108;-69
2023/01/14 01:29:34;;;;;;;85.82;61.90;;;9.90;99.90;;;;;;5050300;28;20056;-70
2023/01/14 01:32:38;;;;;;;93.00;61.70;;;10.50;99.90;;;;;;5050350;28;20040;-70
2023/01/14 01:35:42;;;;;;;93.85;61.15;;;;;;;;;;5050172;28;20376;-70
2023/01/14 01:38:47;;;;;;;94.43;59.60;;;;;;;;;;5050634;28;20064;-69
2023/01/14 01:41:51;;;;;;;87.30;58.53;;;;;;;;;;5050464;28;20063;-68
2023/01/14 01:45:22;;;;;;;85.82;58.58;;;10.60;99.90;;;;;;5050508;28;20048;-68
2023/01/14 01:48:40;;;;;;;87.55;61.13;;;10.60;99.90;;;;;;5038249;28;20044;-69
2023/01/14 01:51:51;;;;;;;93.20;62.53;;;11.40;99.90;;;;;;5053609;28;20052;-69
2023/01/14 01:55:00;;;;;;;86.82;57.97;;;10.40;99.90;;;;;;5054426;28;20047;-69
2023/01/14 01:58:06;;;;;;;87.80;57.85;;;10.80;99.90;;;;;;5054341;28;20048;-68
2023/01/14 02:01:11;;;;;;;89.90;59.50;;;10.40;99.90;;;;;;5054154;28;20523;-69
2023/01/14 02:04:17;;;;;;;89.15;61.45;;;;;;;;;;5055056;28;20527;-69
2023/01/14 02:07:23;;;;;;;91.20;59.17;;;10.30;99.90;;;;;;5054111;28;20068;-69
2023/01/14 02:10:35;;;;;;;93.82;61.00;;;;;;;;;;5053743;28;20076;-69
2023/01/14 02:13:42;;;;;;;88.47;61.03;;;;;;;;;;5053931;28;20064;-69
2023/01/14 02:16:46;;;;;;;80.10;58.92;;;;;;;;;;5053723;28;20048;-69
2023/01/14 02:20:15;;;;;;;90.40;59.60;;;10.70;99.90;;;;;;5052938;28;20040;-69
2023/01/14 02:23:38;;;;;;;96.38;63.17;;;11.20;99.90;;;;;;5053565;28;20043;-69
2023/01/14 02:27:16;;;;;;;95.32;60.72;;;10.60;99.90;;;;;;5052579;28;20044;-69
2023/01/14 02:30:29;;;;;;;81.88;56.55;;;10.60;99.90;;;;;;5052446;28;20052;-69
2023/01/14 02:33:41;;;;;;;81.32;55.20;;;;;;;;;;5052673;28;20048;-69
2023/01/14 02:37:05;;;;;;;80.78;53.97;;;10.60;99.90;;;;;;5052901;28;20154;-69
2023/01/14 02:40:23;;;;;;;73.38;52.90;;;10.40;99.90;;;;;;5052542;28;20040;-69
2023/01/14 02:47:05;;;;;;;90.18;55.10;;;;;;;;;;5052112;28;20047;-69
2023/01/14 02:50:12;;;;;;;86.68;55.25;;;;;;;;;;5052031;28;20055;-69
2023/01/14 02:53:20;;;;;;;83.40;56.45;;;11.50;99.90;;;;;;5053131;28;20051;-69
2023/01/14 02:56:24;;;;;;;81.72;52.50;;;10.30;99.90;;;;;;5051793;28;20072;-69
2023/01/14 02:59:43;;;;;;;78.18;52.67;;;10.30;99.90;;;;;;5051829;28;20163;-69
2023/01/14 03:02:55;;;;;;;79.47;52.45;;;10.30;99.90;;;;;;5052077;28;20052;-69
2023/01/14 03:06:01;;;;;;;71.95;50.03;;;10.00;99.90;;;;;;5052273;28;20044;-69
2023/01/14 03:09:25;;;;;;;78.80;52.60;;;;;;;;;;5051504;28;20404;-69
2023/01/14 03:12:40;;;;;;;74.53;50.95;;;9.40;99.90;;;;;;5051757;28;20162;-69
2023/01/14 03:16:06;;;;;;;73.80;50.22;;;9.80;99.90;;;;;;5051657;28;20040;-69
2023/01/14 03:19:11;;;;;;;80.20;51.58;;;;;;;;;;5052611;28;20100;-69
2023/01/14 03:22:15;;;;;;;78.20;51.42;;;10.60;99.90;;;;;;5052809;28;20044;-68
2023/01/14 03:25:22;;;;;;;72.63;50.22;;;10.40;99.90;;;;;;5052734;28;20064;-68
2023/01/14 03:28:34;;;;;;;79.95;51.50;;;10.40;99.90;;;;;;5051485;28;20052;-68
2023/01/14 03:31:42;;;;;;;75.63;49.65;;;;;;;;;;5051431;28;20052;-67
2023/01/14 03:34:54;;;;;;;79.20;49.67;;;10.60;99.90;;;;;;5051455;28;20048;-68
2023/01/14 03:38:21;;;;;;;77.82;50.05;;;10.40;99.90;;;;;;5052073;28;20040;-67
2023/01/14 03:45:00;;;;;;;72.63;49.42;;;10.30;99.90;;;;;;5051847;28;20040;-69
2023/01/14 03:48:04;;;;;;;80.82;51.10;;;10.30;99.90;;;;;;5051754;28;20040;-69
2023/01/14 03:51:24;;;;;;;81.78;50.47;;;10.40;99.90;;;;;;5051776;28;20064;-68
2023/01/14 03:54:37;;;;;;;85.35;50.45;;;10.50;99.90;;;;;;5051931;28;20396;-68
2023/01/14 03:58:00;;;;;;;75.40;50.15;;;7.80;99.90;;;;;;5051584;28;20056;-69
2023/01/14 04:01:23;;;;;;;78.68;50.10;;;11.60;99.90;;;;;;5051890;28;20051;-69
2023/01/14 04:04:27;;;;;;;72.68;50.45;;;10.20;99.90;;;;;;5051964;28;20500;-69
2023/01/14 04:07:31;;;;;;;74.53;49.28;;;10.20;99.90;;;;;;5050478;28;20044;-68
2023/01/14 04:10:36;;;;;;;77.22;50.70;;;;;;;;;;5051497;28;20064;-69
2023/01/14 04:17:03;;;;;;;73.53;47.17;;;;;;;;;;5051428;28;20056;-68
2023/01/14 04:20:08;;;;;;;72.30;50.28;;;10.30;99.90;;;;;;5051334;28;20036;-69
2023/01/14 04:23:12;;;;;;;80.43;51.03;;;;;;;;;;5051160;28;20373;-68
2023/01/14 04:26:16;;;;;;;75.22;50.90;;;10.30;99.90;;;;;;5051147;28;20047;-69
2023/01/14 04:29:20;;;;;;;83.65;49.90;;;10.20;99.90;;;;;;5051373;28;20052;-68
2023/01/14 04:32:24;;;;;;;69.30;48.80;;;11.20;99.90;;;;;;5051060;28;20072;-68
2023/01/14 04:35:28;;;;;;;72.70;50.80;;;10.30;99.90;;;;;;5051162;28;20147;-69
2023/01/14 04:38:32;;;;;;;81.57;54.42;;;;;;;;;;5051390;28;20056;-68
2023/01/14 04:45:07;;;;;;;83.93;52.00;;;10.30;99.90;;;;;;5038893;28;20055;-69
2023/01/14 04:48:11;;;;;;;73.90;52.67;;;10.20;99.90;;;;;;5051353;28;20036;-68
2023/01/14 04:51:15;;;;;;;77.50;52.00;;;10.20;99.90;;;;;;5050760;28;20052;-69
2023/01/14 04:54:19;;;;;;;72.75;50.88;;;;;;;;;;5050925;28;20048;-68
2023/01/14 04:57:23;;;;;;;73.65;50.00;;;9.50;99.90;;;;;;5050497;28;20044;-68
2023/01/14 05:00:27;;;;;;;73.32;52.20;;;8.80;99.90;;;;;;5050853;28;20054;-69
2023/01/14 05:03:31;;;;;;;75.95;51.72;;;8.60;99.90;;;;;;5050389;28;20052;-68
2023/01/14 05:06:35;;;;;;;74.85;50.85;;;;;;;;;;5050351;28;20039;-68
2023/01/14 05:09:39;;;;;;;78.43;50.28;;;10.00;99.90;;;;;;5050283;28;20048;-68
2023/01/14 05:12:55;;;;;;;71.05;50.13;;;10.00;99.90;;;;;;5050609;28;20052;-68
2023/01/14 05:16:00;;;;;;;78.97;50.40;;;9.90;99.90;;;;;;5050179;28;20040;-68
2023/01/14 05:19:04;;;;;;;75.18;48.88;;;;;;;;;;5050409;28;20044;-68
2023/01/14 05:22:09;;;;;;;74.47;48.80;;;;;;;;;;5050963;28;20059;-68
2023/01/14 05:25:13;;;;;;;79.07;45.83;;;9.80;99.90;;;;;;5050706;28;20052;-69
2023/01/14 05:28:19;;;;;;;67.18;43.78;;;12.70;99.90;;;;;;5049775;28;20036;-68
2023/01/14 05:31:24;;;;;;;71.63;43.75;;;;;;;;;;5050506;28;20056;-68
2023/01/14 05:34:30;;;;;;;66.05;41.75;;;;;;;;;;5050509;28;20060;-68
2023/01/14 05:37:35;;;;;;;65.50;43.13;;;;;;;;;;5050496;28;20048;-68
2023/01/14 05:40:39;;;;;;;72.68;44.63;;;;;;;;;;5050349;28;20048;-67
2023/01/14 05:47:07;;;;;;;60.53;42.45;;;;;;;;;;5050261;28;20401;-68
2023/01/14 05:50:12;;;;;;;61.70;42.83;;;;;;;;;;5049924;28;20044;-68
2023/01/14 05:53:15;;;;;;;60.92;40.72;;;;;;;;;;5049989;28;20068;-68
2023/01/14 05:56:20;;;;;;;60.10;35.05;;;;;;;;;;5050603;28;20044;-67
2023/01/14 05:59:24;;;;;;;58.25;35.78;;;;;;;;;;5050628;28;20048;-68
2023/01/14 06:09:13;;;;;;;45.15;28.88;;;9.50;99.90;;;;;;5049343;28;20044;-69
2023/01/14 06:12:33;;;;;;;43.75;27.52;;;;;;;;;;5050859;28;20048;-68
2023/01/14 06:15:43;;;;;;;46.25;27.48;;;9.70;99.90;;;;;;5050622;28;20040;-68
2023/01/14 06:18:47;;;;;;;45.92;26.48;;;;;;;;;;5050366;28;20059;-68
2023/01/14 06:21:52;;;;;;;45.83;24.60;;;;;;;;;;5038785;28;20056;-69
2023/01/14 06:24:56;;;;;;;38.70;23.02;;;;;;;;;;5050408;28;20044;-68
2023/01/14 06:28:00;;;;;;;32.72;22.20;;;;;;;;;;5050463;28;20487;-68
2023/01/14 06:31:10;;;;;;;44.13;23.75;;;9.90;99.90;;;;;;5050436;28;20056;-68
2023/01/14 06:34:14;;;;;;;39.45;26.05;;;9.10;99.90;;;;;;5050320;28;20112;-68
2023/01/14 06:37:18;;;;;;;36.92;22.60;;;;;;;;;;5053956;28;20040;-69
2023/01/14 06:40:22;;;;;;;47.30;22.30;;;9.70;99.90;;;;;;5054842;28;20044;-68
2023/01/14 06:43:27;;;;;;;42.28;23.42;;;;;;;;;;5054238;28;20111;-69
2023/01/14 06:46:31;;;;;;;42.88;23.85;;;;;;;;;;5053910;28;20040;-69
2023/01/14 06:49:35;;;;;;;40.20;23.33;;;9.70;99.90;;;;;;5054126;28;20056;-68
2023/01/14 06:52:39;;;;;;;47.53;24.17;;;;;;;;;;5054232;28;20048;-68
2023/01/14 06:55:43;;;;;;;48.17;23.50;;;;;;;;;;5053339;28;20039;-70
2023/01/14 06:58:48;;;;;;;43.30;24.92;;;9.60;99.90;;;;;;5053303;28;20052;-72
2023/01/14 07:01:52;;;;;;;54.20;26.52;;;9.60;99.90;;;;;;5053012;28;20510;-73
2023/01/14 07:04:56;;;;;;;40.10;24.33;;;9.50;99.90;;;;;;5053391;28;20056;-71
2023/01/14 07:08:00;;;;;;;48.72;26.10;;;9.70;99.90;;;;;;5053533;28;20040;-75
2023/01/14 07:11:05;;;;;;;45.30;27.05;;;;;;;;;;5053583;28;20404;-69
2023/01/14 07:14:12;;;;;;;47.08;27.90;;;;;;;;;;5053946;28;20381;-72
2023/01/14 07:17:17;;;;;;;52.58;25.83;;;;;;;;;;5053969;28;20047;-73
2023/01/14 07:20:21;;;;;;;54.05;26.88;;;;;;;;;;5054024;28;20068;-71
2023/01/14 07:23:26;;;;;;;61.88;28.35;;;9.70;99.90;;;;;;5053234;28;20056;-72
2023/01/14 07:26:30;;;;;;;50.33;27.73;;;9.70;99.90;;;;;;5054755;28;20044;-73
2023/01/14 07:29:34;;;;;;;49.50;27.05;;;;;;;;;;5053935;28;20044;-70
2023/01/14 07:32:38;;;;;;;52.08;28.30;;;7.50;99.90;;;;;;5053482;28;20044;-73
2023/01/14 07:35:44;;;;;;;50.20;29.13;;;;;;;;;;5053442;28;20056;-72
2023/01/14 07:38:49;;;;;;;53.67;27.60;;;;;;;;;;5053311;28;20048;-71
2023/01/14 07:41:53;;;;;;;44.92;26.13;;;;;;;;;;5053412;28;20048;-69
2023/01/14 07:45:03;;;;;;;44.92;27.05;;;10.50;99.90;;;;;;5052257;28;20036;-70
2023/01/14 07:48:08;;;;;;;50.47;26.35;;;11.30;99.90;;;;;;5052990;28;20392;-69
2023/01/14 07:51:15;;;;;;;43.67;26.92;;;10.60;99.90;;;;;;5052514;28;20056;-71
2023/01/14 07:54:19;;;;;;;45.83;25.92;;;10.80;99.90;;;;;;5052814;28;20499;-70
2023/01/14 07:57:26;;;;;;;46.97;27.48;;;11.00;99.90;;;;;;5052658;28;20059;-70
2023/01/14 08:00:30;;;;;;;43.78;28.30;;;11.20;99.90;;;;;;5052556;28;20400;-70
2023/01/14 08:03:36;;;;;;;43.38;28.52;;;11.40;99.90;;;;;;5052570;28;20048;-72
2023/01/14 08:06:41;;;;;;;51.65;27.65;;;11.40;99.90;;;;;;5052811;28;20091;-72
2023/01/14 08:09:44;;;;;;;45.47;28.45;;;12.00;99.90;;;;;;5052585;28;20524;-71
2023/01/14 08:12:49;;;;;;;49.80;27.20;;;11.60;99.90;;;;;;5052448;28;20051;-71
2023/01/14 08:15:55;;;;;;;47.47;28.00;;;12.90;99.90;;;;;;5052595;28;20043;-70
2023/01/14 08:18:59;;;;;;;46.75;27.70;;;;;;;;;;5052864;28;20063;-74
2023/01/14 08:22:04;;;;;;;49.00;27.60;;;;;;;;;;5052375;28;20044;-71
2023/01/14 08:25:08;;;;;;;45.40;26.13;;;;;;;;;;5052536;28;20579;-72
2023/01/14 08:28:12;;;;;;;40.72;24.70;;;12.70;99.90;;;;;;5051288;28;20384;-70
2023/01/14 08:31:17;;;;;;;41.88;27.00;;;12.60;99.90;;;;;;5051980;28;20150;-69
2023/01/14 08:34:25;;;;;;;45.30;25.55;;;12.80;99.90;;;;;;5052280;28;20048;-69
2023/01/14 08:37:29;;;;;;;36.78;26.05;;;;;;;;;;5051187;28;20044;-70
2023/01/14 08:40:34;;;;;;;41.97;25.70;;;11.90;99.90;;;;;;5052700;28;20059;-72
2023/01/14 08:43:40;;;;;;;39.60;24.42;;;16.90;99.90;;;;;;5053080;28;20108;-69
2023/01/14 08:46:44;;;;;;;37.80;23.52;;;;;;;;;;5054533;28;20479;-72
2023/01/14 08:49:48;;;;;;;34.78;24.58;;;;;;;;;;5052144;28;20048;-76
2023/01/14 08:52:53;;;;;;;39.03;24.40;;;14.10;99.90;;;;;;5053391;28;20051;-69
2023/01/14 08:56:01;;;;;;;38.53;25.17;;;14.30;99.90;;;;;;5053886;28;20575;-74
2023/01/14 08:59:05;;;;;;;48.85;28.08;;;11.20;99.90;;;;;;5053208;28;20040;-74
2023/01/14 09:02:14;;;;;;;40.47;26.77;;;14.70;99.90;;;;;;5052886;28;20048;-72
2023/01/14 09:05:18;;;;;;;31.95;23.90;;;14.90;99.90;;;;;;5053182;28;20040;-72
2023/01/14 09:18:41;;;;;;;32.72;19.92;;;15.20;98.90;;;;;;5051713;28;20040;-71
2023/01/14 09:21:45;;;;;;;35.63;23.10;;;15.30;98.80;;;;;;5052969;28;20055;-69
2023/01/14 09:24:50;;;;;;;47.33;25.77;;;15.50;98.40;;;;;;5051475;28;20151;-71
2023/01/14 09:27:54;;;;;;;41.47;25.95;;;15.40;98.60;;;;;;5052225;28;20051;-72
2023/01/14 09:30:58;;;;;;;45.65;28.15;;;15.70;98.10;;;;;;5052831;28;20429;-71
2023/01/14 09:34:02;;;;;;;48.35;28.38;;;15.70;98.30;;;;;;5054402;28;20116;-73
2023/01/14 09:37:06;;;;;;;40.13;29.40;;;15.70;98.00;;;;;;5051837;28;20044;-73
2023/01/14 09:40:11;;;;;;;52.00;28.77;;;15.70;97.80;;;;;;5054310;28;20051;-73
2023/01/14 09:43:18;;;;;;;48.65;26.55;;;15.60;98.00;;;;;;5053144;28;20040;-73
2023/01/14 09:46:26;;;;;;;39.85;27.23;;;15.80;97.80;;;;;;5054309;28;20088;-73
2023/01/14 09:49:30;;;;;;;46.67;28.77;;;16.00;97.70;;;;;;5051898;28;20044;-73
2023/01/14 09:53:02;;;;;;;41.42;27.88;;;16.10;97.80;;;;;;5051770;28;20052;-73
2023/01/14 09:56:18;;;;;;;40.03;27.85;;;16.20;97.30;;;;;;5051175;28;20047;-72
2023/01/14 09:59:43;;;;;;;37.28;24.95;;;16.40;97.50;;;;;;5053141;28;20067;-72
2023/01/14 10:03:06;;;;;;;40.55;24.27;;;16.60;97.60;;;;;;5050856;28;20111;-72
2023/01/14 10:06:16;;;;;;;42.83;23.77;;;16.90;97.10;;;;;;5051584;28;20048;-77
2023/01/14 10:09:43;;;;;;;37.60;22.60;;;17.10;96.70;;;;;;5050531;28;20064;-72
2023/01/14 10:12:48;;;;;;;42.42;22.50;;;17.20;96.40;;;;;;5054802;28;20052;-75
2023/01/14 10:15:56;;;;;;;39.05;20.05;;;17.40;96.30;;;;;;5054992;28;20067;-72
2023/01/14 10:19:11;;;;;;;39.97;17.02;;;17.50;96.00;;;;;;5055642;28;20040;-70
2023/01/14 10:23:02;;;;;;;20.85;13.23;;;17.60;96.00;;;;;;5054296;28;20400;-72
2023/01/14 10:26:21;;;;;;;23.75;11.55;;;17.70;95.90;;;;;;5054587;28;20496;-74
2023/01/14 10:29:30;;;;;;;21.02;11.40;;;17.80;95.40;;;;;;5054401;28;20044;-71
2023/01/14 10:32:35;;;;;;;19.33;11.32;;;17.90;94.90;;;;;;5054468;28;20060;-73
2023/01/14 10:35:43;;;;;;;17.90;9.93;;;18.00;95.00;;;;;;5055308;28;20044;-72
2023/01/14 10:38:48;;;;;;;17.17;10.40;;;18.00;94.80;;;;;;5055091;28;20052;-72
2023/01/14 10:41:53;;;;;;;20.02;10.95;;;18.10;94.70;;;;;;5054904;28;20518;-72
2023/01/14 10:44:57;;;;;;;16.55;8.10;;;18.20;95.00;;;;;;5055605;28;20143;-73
2023/01/14 10:48:04;;;;;;;19.10;6.95;;;18.20;94.50;;;;;;5056464;28;20040;-72
2023/01/14 10:51:37;;;;;;;13.60;7.45;;;18.20;93.20;;;;;;5056621;28;20055;-75
2023/01/14 10:54:59;;;;;;;14.45;7.63;;;18.20;93.30;;;;;;5053227;28;20187;-72
2023/01/14 10:58:08;;;;;;;;;;;18.20;93.50;;;;;;5055199;28;20048;-74
2023/01/14 11:01:14;;;;;;;16.88;8.10;;;18.20;93.00;;;;;;5055498;28;19944;-74
2023/01/14 11:04:22;;;;;;;15.98;8.25;;;18.20;92.80;;;;;;5054306;28;20055;-74
2023/01/14 11:07:33;;;;;;;21.20;10.10;;;18.20;92.60;;;;;;5055500;28;20044;-76
2023/01/14 11:10:40;;;;;;;17.85;11.70;;;18.20;92.00;;;;;;5042738;28;20071;-74
2023/01/14 11:13:46;;;;;;;17.33;9.65;;;18.10;92.20;;;;;;5055857;28;20055;-75
2023/01/14 11:16:50;;;;;;;12.95;7.15;;;18.10;92.20;;;;;;5055103;28;20044;-73
2023/01/14 11:20:21;;;;;;;10.57;5.55;;;18.00;92.00;;;;;;5056272;28;20044;-74
2023/01/14 11:23:31;;;;;;;13.35;6.50;;;18.10;91.90;;;;;;5061601;28;20044;-74
2023/01/14 11:26:37;;;;;;;;;;;18.00;91.80;;;;;;5053578;28;20064;-73
2023/01/14 11:29:56;;;;;;;21.90;8.93;;;18.00;91.30;;;;;;5055968;28;19981;-74
2023/01/14 11:33:01;;;;;;;17.38;8.05;;;18.00;90.40;;;;;;5055409;28;20052;-74
2023/01/14 11:36:10;;;;;;;17.48;8.13;;;17.90;90.10;;;;;;5056028;28;20044;-73
2023/01/14 11:39:19;;;;;;;12.73;7.90;;;17.90;89.70;;;;;;5054683;28;20499;-75
2023/01/14 11:42:26;;;;;;;13.93;7.88;;;17.90;89.80;;;;;;5054980;28;20052;-76
2023/01/14 11:45:30;;;;;;;24.27;7.93;;;17.80;88.50;;;;;;5054489;28;20397;-74
2023/01/14 11:48:35;;;;;;;11.18;4.60;;;17.80;87.80;;;;;;5053997;28;20559;-75
2023/01/14 11:51:40;;;;;;;7.13;2.80;;;17.60;80.90;;;;;;5055706;28;20047;-76
2023/01/14 11:54:47;;;;;;;6.30;2.92;;;17.30;77.60;;;;;;5055113;28;20503;-75
2023/01/14 11:57:51;;;;;;;10.10;3.45;;;17.10;76.70;;;;;;5057394;28;20047;-73
2023/01/14 12:01:01;;;;;;;5.75;2.75;;;16.90;78.10;;;;;;5055993;28;20086;-74
2023/01/14 12:04:16;;;;;;;10.70;4.70;;;16.90;78.30;;;;;;5052836;28;20508;-76
2023/01/14 12:07:37;;;;;;;6.45;3.35;;;16.80;78.00;;;;;;5055600;28;20048;-74
2023/01/14 12:10:45;;;;;;;9.55;3.88;;;16.60;77.20;;;;;;5056247;28;20044;-76
2023/01/14 12:17:49;;;;;;;9.50;3.90;;;16.60;79.00;;;;;;5054552;28;20063;-75
2023/01/14 12:20:54;;;;;;;6.18;3.47;;;16.60;78.40;;;;;;5056226;28;20519;-74
2023/01/14 12:24:06;;;;;;;8.80;4.40;;;16.60;78.70;;;;;;5056797;28;20173;-72
2023/01/14 12:27:42;;;;;;;7.57;4.50;;;16.60;79.00;;;;;;5055635;28;20051;-74
2023/01/14 12:30:58;;;;;;;11.10;5.38;;;16.60;78.70;;;;;;5054951;28;20432;-75
2023/01/14 12:34:16;;;;;;;13.32;4.30;;;16.60;78.70;;;;;;5054283;28;20044;-76
2023/01/14 12:37:26;;;;;;;13.65;4.70;;;16.70;79.00;;;;;;5056182;28;20044;-74
2023/01/14 12:47:34;;;;;;;10.43;4.00;;;16.50;76.60;;;;;;5055150;28;20507;-74
2023/01/14 12:50:43;;;;;;;9.65;4.72;;;16.50;78.10;;;;;;5055065;28;20056;-75
2023/01/14 12:53:50;;;;;;;5.10;3.50;;;16.50;79.20;;;;;;5054826;28;20039;-75
2023/01/14 12:56:56;;;;;;;6.53;3.20;;;16.50;76.50;;;;;;5053039;28;20044;-74
2023/01/14 13:00:04;;;;;;;8.90;4.00;;;16.40;76.90;;;;;;5054635;28;20546;-75
2023/01/14 13:03:18;;;;;;;8.77;3.42;;;16.40;77.40;;;;;;5055817;28;20047;-74
2023/01/14 13:06:26;;;;;;;6.68;3.60;;;16.50;77.40;;;;;;5053024;28;20044;-73
2023/01/14 13:09:52;;;;;;;9.20;3.55;;;16.50;77.70;;;;;;5055288;28;20059;-75
2023/01/14 13:12:56;;;;;;;8.45;4.28;;;16.40;76.20;;;;;;5055151;28;20084;-75
2023/01/14 13:16:03;;;;;;;7.25;2.92;;;16.40;75.50;;;;;;5052724;28;20380;-74
2023/01/14 13:19:26;;;;;;;6.78;4.00;;;16.40;76.50;;;;;;5051641;28;20107;-76
2023/01/14 13:22:50;;;;;;;9.48;3.92;;;16.40;75.00;;;;;;5055661;28;20048;-75
2023/01/14 13:25:54;;;;;;;9.23;4.25;;;16.40;74.00;;;;;;5054682;28;20124;-75
2023/01/14 13:29:21;;;;;;;7.72;2.92;;;16.40;74.60;;;;;;5055089;28;20040;-75
2023/01/14 13:33:00;;;;;;;5.03;3.30;;;16.40;73.80;;;;;;5053716;28;20107;-76
2023/01/14 13:36:12;;;;;;;7.07;3.30;;;16.40;74.30;;;;;;5054119;28;20040;-77
2023/01/14 13:39:20;;;;;;;7.00;3.30;;;16.40;74.30;;;;;;5053325;28;20656;-72
2023/01/14 13:42:28;;;;;;;8.10;3.38;;;16.30;74.60;;;;;;5053188;28;20036;-71
2023/01/14 13:45:35;;;;;;;9.05;5.13;;;16.30;74.30;;;;;;5054328;28;20043;-73
2023/01/14 13:48:48;;;;;;;9.18;4.97;;;16.20;75.40;;;;;;5058278;28;20052;-73
2023/01/14 13:52:18;;;;;;;11.20;4.80;;;16.20;75.60;;;;;;5057606;28;20060;-72
2023/01/14 13:55:27;;;;;;;8.57;3.88;;;16.30;75.20;;;;;;5056677;28;20044;-72
2023/01/14 13:58:48;;;;;;;9.10;4.53;;;16.20;75.10;;;;;;5057642;28;20199;-72
2023/01/14 14:01:53;;;;;;;8.38;4.20;;;16.20;75.30;;;;;;5059013;28;20056;-73
2023/01/14 14:05:00;;;;;;;8.70;3.83;;;16.20;74.00;;;;;;5058581;28;20040;-73
2023/01/14 14:08:20;;;;;;;8.73;4.00;;;16.20;75.30;;;;;;5055648;28;20056;-72
2023/01/14 14:11:27;;;;;;;11.88;4.93;;;16.10;76.00;;;;;;5058285;28;20048;-73
2023/01/14 14:14:40;;;;;;;9.50;3.53;;;16.10;75.70;;;;;;5057485;28;20052;-74
2023/01/14 14:17:52;;;;;;;7.57;4.35;;;16.10;75.70;;;;;;5056117;28;20044;-73
2023/01/14 14:20:57;;;;;;;7.00;4.05;;;16.10;75.70;;;;;;5056683;28;20048;-72
2023/01/14 14:24:06;;;;;;;12.35;6.40;;;16.10;75.20;;;;;;5056201;28;20147;-73
2023/01/14 14:27:37;;;;;;;5.85;3.10;;;16.10;74.90;;;;;;5055877;28;20036;-73
2023/01/14 14:30:48;;;;;;;9.20;4.53;;;16.00;73.90;;;;;;5055190;28;20045;-73
2023/01/14 14:34:20;;;;;;;10.63;5.60;;;16.00;75.00;;;;;;5057369;28;20642;-73
2023/01/14 14:37:24;;;;;;;6.82;4.63;;;16.00;75.60;;;;;;5056590;28;20048;-72
2023/01/14 14:40:40;;;;;;;11.70;6.85;;;15.90;76.40;;;;;;5056708;28;20124;-73
2023/01/14 14:43:55;;;;;;;12.63;6.93;;;15.90;76.90;;;;;;5055055;28;20048;-71
2023/01/14 14:47:22;;;;;;;10.60;6.15;;;15.80;77.00;;;;;;5055687;28;20044;-73
2023/01/14 14:50:33;;;;;;;14.02;6.65;;;15.80;77.30;;;;;;5054663;28;20404;-67
2023/01/14 14:53:38;;;;;;;29.63;14.43;;;15.80;78.30;;;;;;5054088;28;20060;-68
2023/01/14 14:56:42;;;;;;;16.90;7.95;;;15.70;78.20;;;;;;5054029;28;20385;-66
2023/01/14 15:00:07;;;;;;;15.45;6.47;;;15.70;78.80;;;;;;5052952;28;20048;-65
2023/01/14 15:03:20;;;;;;;12.32;5.88;;;15.70;79.10;;;;;;5055640;28;20052;-68
2023/01/14 15:06:26;;;;;;;14.13;6.07;;;15.60;79.00;;;;;;5053494;28;20047;-68
2023/01/14 15:09:30;;;;;;;21.65;12.82;;;15.60;79.80;;;;;;5053309;28;20051;-67
2023/01/14 15:12:34;;;;;;;15.88;7.05;;;15.50;80.40;;;;;;5053527;28;20404;-67
2023/01/14 15:15:38;;;;;;;12.15;5.65;;;15.40;80.00;;;;;;5053808;28;20060;-66
2023/01/14 15:18:57;;;;;;;11.32;5.40;;;15.40;80.40;;;;;;5052715;28;20397;-67
2023/01/14 15:22:06;;;;;;;17.55;6.47;;;15.30;80.50;;;;;;5053213;28;20048;-67
2023/01/14 15:25:16;;;;;;;28.85;14.35;;;15.20;80.50;;;;;;5052958;28;20040;-67
2023/01/14 15:28:21;;;;;;;13.70;6.35;;;15.20;80.80;;;;;;5053187;28;20044;-68
2023/01/14 15:31:31;;;;;;;12.73;6.63;;;15.20;81.30;;;;;;5053049;28;20056;-68
2023/01/14 15:34:35;;;;;;;17.55;7.47;;;15.10;82.00;;;;;;5052988;28;20048;-67
2023/01/14 15:37:40;;;;;;;13.75;7.05;;;15.00;81.70;;;;;;5052868;28;20397;-67
2023/01/14 15:40:46;;;;;;;22.35;9.30;;;15.00;81.70;;;;;;5052888;28;20055;-68
2023/01/14 15:43:51;;;;;;;18.88;8.13;;;14.90;81.70;;;;;;5063614;28;20416;-67
2023/01/14 15:46:56;;;;;;;18.27;11.55;;;14.90;82.00;;;;;;5052623;28;20044;-68
2023/01/14 15:50:04;;;;;;;30.30;14.07;;;14.90;81.90;;;;;;5052660;28;20052;-69
2023/01/14 15:53:20;;;;;;;25.38;13.05;;;14.90;82.10;;;;;;5052550;28;20072;-69
2023/01/14 15:56:24;;;;;;;35.08;16.08;;;14.80;81.80;;;;;;5052584;28;20089;-68
2023/01/14 15:59:29;;;;;;;38.42;16.38;;;14.70;81.30;;;;;;5051994;28;20044;-68
2023/01/14 16:02:34;;;;;;;30.92;13.80;;;13.80;80.60;;;;;;5052297;28;20044;-69
2023/01/14 16:05:38;;;;;;;29.40;13.10;;;14.60;81.40;;;;;;5052237;28;20209;-68
2023/01/14 16:08:45;;;;;;;23.88;11.73;;;14.50;80.80;;;;;;5051014;28;20060;-68
2023/01/14 16:11:54;;;;;;;35.65;14.27;;;14.50;81.10;;;;;;5052324;28;20048;-67
2023/01/14 16:14:58;;;;;;;25.58;12.43;;;14.40;81.40;;;;;;5051822;28;20044;-68
2023/01/14 16:18:22;;;;;;;29.45;13.60;;;14.40;81.80;;;;;;5052768;28;20060;-73
2023/01/14 16:21:26;;;;;;;23.90;9.80;;;14.30;81.10;;;;;;5065237;28;20056;-73
2023/01/14 16:24:30;;;;;;;22.45;10.20;;;13.70;81.30;;;;;;5053649;28;20400;-73
2023/01/14 16:27:36;;;;;;;30.95;15.68;;;11.50;80.00;;;;;;5053878;28;20044;-73
2023/01/14 16:30:40;;;;;;;25.85;13.70;;;13.50;81.40;;;;;;5054981;28;20044;-73
2023/01/14 16:33:44;;;;;;;18.08;10.10;;;18.20;84.30;;;;;;5055527;28;20106;-72
2023/01/14 16:36:48;;;;;;;20.40;9.20;;;14.10;81.70;;;;;;5054076;28;20048;-72
2023/01/14 16:39:53;;;;;;;17.70;7.60;;;;;;;;;;5054319;28;20056;-71
2023/01/14 16:42:57;;;;;;;15.63;10.00;;;;;;;;;;5052816;28;20421;-72
2023/01/14 16:46:01;;;;;;;14.07;8.70;;;14.10;82.20;;;;;;5053608;28;20051;-71
2023/01/14 16:49:09;;;;;;;15.65;9.32;;;;;;;;;;5053260;28;20048;-71
2023/01/14 16:52:14;;;;;;;18.50;9.80;;;;;;;;;;5053515;28;20059;-71
2023/01/14 16:55:25;;;;;;;16.88;8.30;;;12.60;81.20;;;;;;5053896;28;20400;-73
2023/01/14 16:58:29;;;;;;;15.07;9.38;;;;;;;;;;5053454;28;20041;-72
2023/01/14 17:01:34;;;;;;;14.82;8.38;;;15.80;83.70;;;;;;5052645;28;20068;-71
2023/01/14 17:04:39;;;;;;;14.43;7.90;;;14.80;83.00;;;;;;5052606;28;20380;-70
2023/01/14 17:07:44;;;;;;;16.25;9.57;;;12.30;81.10;;;;;;5052709;28;21064;-72
2023/01/14 17:10:49;;;;;;;11.80;6.72;;;;;;;;;;5053802;28;20067;-73
2023/01/14 17:13:54;;;;;;;19.10;7.07;;;13.80;82.20;;;;;;5052555;28;20051;-73
2023/01/14 17:16:59;;;;;;;12.25;6.78;;;;;;;;;;5053271;28;20063;-74